sensor_id;sensor_type;location;lat;lon;timestamp;P1;P2;P0
66336;PMS1003;53139;45.576;5.304;2023-04-25T00:01:02;14.50;11.75;10.00
66336;PMS1003;53139;45.576;5.304;2023-04-25T00:04:04;16.00;13.25;10.00
66336;PMS1003;53139;45.576;5.304;2023-04-25T00:07:07;18.00;16.25;10.00
66336;PMS1003;53139;45.576;5.304;2023-04-25T00:10:08;12.50;12.50;9.00
66336;PMS1003;53139;45.576;5.304;2023-04-25T00:13:10;17.25;12.75;9.75
66336;PMS1003;53139;45.576;5.304;2023-04-25T00:16:11;15.50;13.00;11.00
66336;PMS1003;53139;45.576;5.304;2023-04-25T00:19:13;16.75;16.00;10.75
66336;PMS1003;53139;45.576;5.304;2023-04-25T00:22:13;18.00;14.75;10.00
66336;PMS1003;53139;45.576;5.304;2023-04-25T00:25:14;16.50;12.75;9.00
66336;PMS1003;53139;45.576;5.304;2023-04-25T00:28:15;15.75;12.00;8.50
66336;PMS1003;53139;45.576;5.304;2023-04-25T00:31:15;14.50;12.00;6.75
66336;PMS1003;53139;45.576;5.304;2023-04-25T00:34:15;16.25;14.00;10.00
66336;PMS1003;53139;45.576;5.304;2023-04-25T00:37:16;17.75;14.00;11.25
66336;PMS1003;53139;45.576;5.304;2023-04-25T00:40:16;15.00;13.25;10.00
66336;PMS1003;53139;45.576;5.304;2023-04-25T00:43:17;12.00;11.25;7.50
66336;PMS1003;53139;45.576;5.304;2023-04-25T00:46:17;10.75;10.25;6.25
66336;PMS1003;53139;45.576;5.304;2023-04-25T00:49:17;5.50;5.00;4.75
66336;PMS1003;53139;45.576;5.304;2023-04-25T00:52:18;6.25;6.25;5.00
66336;PMS1003;53139;45.576;5.304;2023-04-25T00:55:19;7.00;7.00;5.50
66336;PMS1003;53139;45.576;5.304;2023-04-25T00:58:20;11.50;10.00;7.00
66336;PMS1003;53139;45.576;5.304;2023-04-25T01:01:22;10.00;9.75;7.25
66336;PMS1003;53139;45.576;5.304;2023-04-25T01:04:22;14.00;14.00;10.00
66336;PMS1003;53139;45.576;5.304;2023-04-25T01:07:23;17.50;15.25;10.50
66336;PMS1003;53139;45.576;5.304;2023-04-25T01:10:27;12.25;11.00;9.00
66336;PMS1003;53139;45.576;5.304;2023-04-25T01:13:27;10.50;10.00;7.25
66336;PMS1003;53139;45.576;5.304;2023-04-25T01:16:28;11.25;8.25;6.25
66336;PMS1003;53139;45.576;5.304;2023-04-25T01:19:29;9.50;9.50;7.25
66336;PMS1003;53139;45.576;5.304;2023-04-25T01:22:29;11.00;9.50;5.75
66336;PMS1003;53139;45.576;5.304;2023-04-25T01:25:30;14.50;11.75;7.00
66336;PMS1003;53139;45.576;5.304;2023-04-25T01:28:31;13.25;10.75;6.00
66336;PMS1003;53139;45.576;5.304;2023-04-25T01:31:33;13.00;10.00;6.50
66336;PMS1003;53139;45.576;5.304;2023-04-25T01:34:35;9.75;9.25;6.50
66336;PMS1003;53139;45.576;5.304;2023-04-25T01:37:38;10.00;9.00;6.50
66336;PMS1003;53139;45.576;5.304;2023-04-25T01:40:41;9.00;9.00;7.25
66336;PMS1003;53139;45.576;5.304;2023-04-25T01:43:41;6.00;5.50;5.00
66336;PMS1003;53139;45.576;5.304;2023-04-25T01:46:42;9.75;7.00;5.25
66336;PMS1003;53139;45.576;5.304;2023-04-25T01:49:42;10.50;8.50;6.00
66336;PMS1003;53139;45.576;5.304;2023-04-25T01:52:43;12.25;9.25;6.00
66336;PMS1003;53139;45.576;5.304;2023-04-25T01:55:43;13.50;7.50;5.50
66336;PMS1003;53139;45.576;5.304;2023-04-25T01:58:44;13.50;10.00;7.25
66336;PMS1003;53139;45.576;5.304;2023-04-25T02:01:44;15.50;11.75;9.75
66336;PMS1003;53139;45.576;5.304;2023-04-25T02:04:44;9.00;9.00;7.67
66336;PMS1003;53139;45.576;5.304;2023-04-25T02:07:45;10.25;9.75;6.75
66336;PMS1003;53139;45.576;5.304;2023-04-25T02:10:47;14.50;10.75;7.00
66336;PMS1003;53139;45.576;5.304;2023-04-25T02:13:47;13.25;10.75;7.50
66336;PMS1003;53139;45.576;5.304;2023-04-25T02:16:47;16.00;12.00;9.25
66336;PMS1003;53139;45.576;5.304;2023-04-25T02:19:48;9.50;9.00;8.00
66336;PMS1003;53139;45.576;5.304;2023-04-25T02:22:48;12.25;9.25;7.00
66336;PMS1003;53139;45.576;5.304;2023-04-25T02:25:49;11.25;8.00;6.50
66336;PMS1003;53139;45.576;5.304;2023-04-25T02:28:50;14.00;11.00;8.00
66336;PMS1003;53139;45.576;5.304;2023-04-25T02:31:51;9.00;9.00;6.50
66336;PMS1003;53139;45.576;5.304;2023-04-25T02:34:52;7.50;7.00;5.00
66336;PMS1003;53139;45.576;5.304;2023-04-25T02:37:52;8.00;7.75;5.00
66336;PMS1003;53139;45.576;5.304;2023-04-25T02:40:53;10.75;7.25;6.00
66336;PMS1003;53139;45.576;5.304;2023-04-25T02:43:53;9.00;7.25;5.25
66336;PMS1003;53139;45.576;5.304;2023-04-25T02:46:53;8.50;7.25;5.00
66336;PMS1003;53139;45.576;5.304;2023-04-25T02:49:54;10.00;10.00;6.00
66336;PMS1003;53139;45.576;5.304;2023-04-25T02:52:54;10.00;9.00;8.00
66336;PMS1003;53139;45.576;5.304;2023-04-25T02:55:55;7.00;7.00;5.00
66336;PMS1003;53139;45.576;5.304;2023-04-25T02:58:58;8.00;7.75;5.00
66336;PMS1003;53139;45.576;5.304;2023-04-25T03:01:59;10.75;8.75;6.00
66336;PMS1003;53139;45.576;5.304;2023-04-25T03:04:59;14.25;8.00;5.00
66336;PMS1003;53139;45.576;5.304;2023-04-25T03:08:00;7.50;6.25;5.00
66336;PMS1003;53139;45.576;5.304;2023-04-25T03:11:01;8.50;8.00;6.00
66336;PMS1003;53139;45.576;5.304;2023-04-25T03:14:04;9.00;7.00;5.75
66336;PMS1003;53139;45.576;5.304;2023-04-25T03:17:04;10.50;7.00;5.25
66336;PMS1003;53139;45.576;5.304;2023-04-25T03:20:05;9.75;9.50;6.50
66336;PMS1003;53139;45.576;5.304;2023-04-25T03:23:08;8.75;7.50;5.25
66336;PMS1003;53139;45.576;5.304;2023-04-25T03:26:08;4.50;4.50;3.25
66336;PMS1003;53139;45.576;5.304;2023-04-25T03:29:09;8.00;8.00;6.00
66336;PMS1003;53139;45.576;5.304;2023-04-25T03:32:10;8.75;8.00;5.00
66336;PMS1003;53139;45.576;5.304;2023-04-25T03:35:10;8.00;6.50;5.00
66336;PMS1003;53139;45.576;5.304;2023-04-25T03:38:10;8.75;8.50;6.00
66336;PMS1003;53139;45.576;5.304;2023-04-25T03:41:11;9.00;6.00;5.00
66336;PMS1003;53139;45.576;5.304;2023-04-25T03:44:11;7.25;7.00;5.00
66336;PMS1003;53139;45.576;5.304;2023-04-25T03:47:12;11.00;7.50;6.00
66336;PMS1003;53139;45.576;5.304;2023-04-25T03:50:12;11.50;7.50;6.00
66336;PMS1003;53139;45.576;5.304;2023-04-25T03:53:12;10.75;9.00;6.50
66336;PMS1003;53139;45.576;5.304;2023-04-25T03:56:13;12.00;10.50;6.00
66336;PMS1003;53139;45.576;5.304;2023-04-25T03:59:13;10.00;10.00;7.25
66336;PMS1003;53139;45.576;5.304;2023-04-25T04:02:14;9.75;7.25;4.50
66336;PMS1003;53139;45.576;5.304;2023-04-25T04:05:14;10.75;8.75;6.25
66336;PMS1003;53139;45.576;5.304;2023-04-25T04:08:14;10.75;10.00;6.25
66336;PMS1003;53139;45.576;5.304;2023-04-25T04:11:15;8.50;8.50;6.25
66336;PMS1003;53139;45.576;5.304;2023-04-25T04:14:15;10.75;10.50;8.00
66336;PMS1003;53139;45.576;5.304;2023-04-25T04:17:16;12.50;9.00;6.75
66336;PMS1003;53139;45.576;5.304;2023-04-25T04:20:17;9.00;9.00;8.00
66336;PMS1003;53139;45.576;5.304;2023-04-25T04:23:17;13.00;10.25;6.00
66336;PMS1003;53139;45.576;5.304;2023-04-25T04:26:17;11.50;9.75;8.25
66336;PMS1003;53139;45.576;5.304;2023-04-25T04:29:18;9.00;9.00;6.00
66336;PMS1003;53139;45.576;5.304;2023-04-25T04:32:21;9.25;9.25;6.50
66336;PMS1003;53139;45.576;5.304;2023-04-25T04:35:23;9.00;8.00;6.25
66336;PMS1003;53139;45.576;5.304;2023-04-25T04:38:24;10.00;10.00;7.50
66336;PMS1003;53139;45.576;5.304;2023-04-25T04:41:25;12.50;10.75;7.50
66336;PMS1003;53139;45.576;5.304;2023-04-25T04:44:26;15.75;12.50;8.50
66336;PMS1003;53139;45.576;5.304;2023-04-25T04:47:40;14.50;11.00;9.00
66336;PMS1003;53139;45.576;5.304;2023-04-25T04:51:17;10.75;10.50;8.50
66336;PMS1003;53139;45.576;5.304;2023-04-25T04:54:51;23.50;16.50;10.00
66336;PMS1003;53139;45.576;5.304;2023-04-25T04:58:10;15.00;12.50;9.00
66336;PMS1003;53139;45.576;5.304;2023-04-25T05:01:17;19.75;16.25;12.00
66336;PMS1003;53139;45.576;5.304;2023-04-25T05:04:18;12.25;11.50;7.50
66336;PMS1003;53139;45.576;5.304;2023-04-25T05:07:34;21.50;14.75;10.00
66336;PMS1003;53139;45.576;5.304;2023-04-25T05:11:05;31.00;22.00;13.25
66336;PMS1003;53139;45.576;5.304;2023-04-25T05:14:27;21.25;17.75;13.00
66336;PMS1003;53139;45.576;5.304;2023-04-25T05:18:02;17.00;13.00;9.25
66336;PMS1003;53139;45.576;5.304;2023-04-25T05:21:36;23.00;15.75;11.00
66336;PMS1003;53139;45.576;5.304;2023-04-25T05:25:10;12.25;11.50;9.25
66336;PMS1003;53139;45.576;5.304;2023-04-25T05:28:52;13.25;11.25;9.25
66336;PMS1003;53139;45.576;5.304;2023-04-25T05:32:36;18.00;13.50;9.25
66336;PMS1003;53139;45.576;5.304;2023-04-25T05:36:23;11.50;10.50;8.00
66336;PMS1003;53139;45.576;5.304;2023-04-25T05:40:01;15.00;9.00;5.50
66336;PMS1003;53139;45.576;5.304;2023-04-25T05:43:31;12.50;12.00;8.75
66336;PMS1003;53139;45.576;5.304;2023-04-25T05:46:48;13.50;10.25;7.00
66336;PMS1003;53139;45.576;5.304;2023-04-25T05:49:49;13.50;12.50;10.00
66336;PMS1003;53139;45.576;5.304;2023-04-25T05:52:50;16.50;16.25;10.75
66336;PMS1003;53139;45.576;5.304;2023-04-25T05:55:53;21.00;14.00;10.75
66336;PMS1003;53139;45.576;5.304;2023-04-25T05:59:26;15.50;12.25;9.50
66336;PMS1003;53139;45.576;5.304;2023-04-25T06:03:04;15.50;11.50;7.25
66336;PMS1003;53139;45.576;5.304;2023-04-25T06:06:40;17.25;13.75;11.00
66336;PMS1003;53139;45.576;5.304;2023-04-25T06:10:12;27.25;25.00;16.00
66336;PMS1003;53139;45.576;5.304;2023-04-25T06:13:53;12.00;11.00;8.50
66336;PMS1003;53139;45.576;5.304;2023-04-25T06:17:27;12.00;12.00;8.50
66336;PMS1003;53139;45.576;5.304;2023-04-25T06:20:55;14.25;11.50;7.75
66336;PMS1003;53139;45.576;5.304;2023-04-25T06:24:27;13.00;11.00;8.25
66336;PMS1003;53139;45.576;5.304;2023-04-25T06:27:54;14.25;10.50;7.75
66336;PMS1003;53139;45.576;5.304;2023-04-25T06:31:32;10.50;7.25;6.00
66336;PMS1003;53139;45.576;5.304;2023-04-25T06:35:06;14.50;8.25;6.00
66336;PMS1003;53139;45.576;5.304;2023-04-25T06:38:44;10.50;8.75;6.00
66336;PMS1003;53139;45.576;5.304;2023-04-25T06:42:14;10.00;9.25;6.25
66336;PMS1003;53139;45.576;5.304;2023-04-25T06:45:46;9.00;8.50;7.00
66336;PMS1003;53139;45.576;5.304;2023-04-25T06:49:25;11.75;11.50;7.25
66336;PMS1003;53139;45.576;5.304;2023-04-25T06:53:08;13.25;11.75;7.50
66336;PMS1003;53139;45.576;5.304;2023-04-25T06:56:39;16.75;12.00;8.25
66336;PMS1003;53139;45.576;5.304;2023-04-25T07:00:08;12.25;12.25;8.00
66336;PMS1003;53139;45.576;5.304;2023-04-25T07:03:48;10.75;8.25;6.00
66336;PMS1003;53139;45.576;5.304;2023-04-25T07:07:21;13.25;10.00;7.00
66336;PMS1003;53139;45.576;5.304;2023-04-25T07:10:54;11.25;10.25;7.00
66336;PMS1003;53139;45.576;5.304;2023-04-25T07:14:34;13.75;11.75;8.00
66336;PMS1003;53139;45.576;5.304;2023-04-25T07:18:06;11.75;10.75;7.75
66336;PMS1003;53139;45.576;5.304;2023-04-25T07:21:34;13.50;10.25;7.00
66336;PMS1003;53139;45.576;5.304;2023-04-25T07:25:06;15.50;9.25;6.50
66336;PMS1003;53139;45.576;5.304;2023-04-25T07:28:41;13.00;10.25;8.75
66336;PMS1003;53139;45.576;5.304;2023-04-25T07:32:13;12.00;10.25;8.00
66336;PMS1003;53139;45.576;5.304;2023-04-25T07:35:45;11.50;10.50;8.50
66336;PMS1003;53139;45.576;5.304;2023-04-25T07:39:22;11.25;11.00;8.00
66336;PMS1003;53139;45.576;5.304;2023-04-25T07:43:01;11.50;9.00;6.50
66336;PMS1003;53139;45.576;5.304;2023-04-25T07:46:50;14.00;12.50;9.75
66336;PMS1003;53139;45.576;5.304;2023-04-25T07:50:38;10.00;9.00;6.00
66336;PMS1003;53139;45.576;5.304;2023-04-25T07:54:18;15.00;12.75;9.75
66336;PMS1003;53139;45.576;5.304;2023-04-25T07:57:54;12.50;12.50;9.00
66336;PMS1003;53139;45.576;5.304;2023-04-25T08:01:31;12.00;10.00;7.75
66336;PMS1003;53139;45.576;5.304;2023-04-25T08:05:10;17.00;14.25;9.25
66336;PMS1003;53139;45.576;5.304;2023-04-25T08:08:41;12.00;9.50;6.75
66336;PMS1003;53139;45.576;5.304;2023-04-25T08:12:21;17.00;13.75;10.00
66336;PMS1003;53139;45.576;5.304;2023-04-25T08:16:04;10.00;9.75;6.50
66336;PMS1003;53139;45.576;5.304;2023-04-25T08:19:46;10.00;9.75;7.50
66336;PMS1003;53139;45.576;5.304;2023-04-25T08:23:34;9.00;6.75;5.75
66336;PMS1003;53139;45.576;5.304;2023-04-25T08:27:19;10.00;9.00;7.00
66336;PMS1003;53139;45.576;5.304;2023-04-25T08:31:14;10.00;10.00;7.75
66336;PMS1003;53139;45.576;5.304;2023-04-25T08:34:59;9.00;8.50;5.75
66336;PMS1003;53139;45.576;5.304;2023-04-25T08:38:46;10.50;8.25;6.00
66336;PMS1003;53139;45.576;5.304;2023-04-25T08:42:34;10.00;7.75;6.00
66336;PMS1003;53139;45.576;5.304;2023-04-25T08:46:32;9.50;8.00;6.25
66336;PMS1003;53139;45.576;5.304;2023-04-25T08:50:14;8.00;7.50;5.50
66336;PMS1003;53139;45.576;5.304;2023-04-25T08:54:10;10.00;8.25;7.00
66336;PMS1003;53139;45.576;5.304;2023-04-25T08:58:21;8.50;8.00;7.00
66336;PMS1003;53139;45.576;5.304;2023-04-25T09:02:17;6.00;6.00;4.00
66336;PMS1003;53139;45.576;5.304;2023-04-25T09:06:22;9.25;7.00;6.00
66336;PMS1003;53139;45.576;5.304;2023-04-25T09:10:18;9.75;6.75;5.50
66336;PMS1003;53139;45.576;5.304;2023-04-25T09:14:17;7.00;7.00;5.00
66336;PMS1003;53139;45.576;5.304;2023-04-25T09:18:11;10.75;9.00;7.00
66336;PMS1003;53139;45.576;5.304;2023-04-25T09:22:10;4.25;4.25;3.00
66336;PMS1003;53139;45.576;5.304;2023-04-25T09:25:53;4.75;3.75;3.50
66336;PMS1003;53139;45.576;5.304;2023-04-25T09:29:45;5.50;5.50;4.00
66336;PMS1003;53139;45.576;5.304;2023-04-25T09:34:09;5.00;5.00;3.50
66336;PMS1003;53139;45.576;5.304;2023-04-25T09:38:16;2.00;1.00;1.00
66336;PMS1003;53139;45.576;5.304;2023-04-25T09:42:08;3.00;3.00;2.25
66336;PMS1003;53139;45.576;5.304;2023-04-25T09:45:58;3.50;3.50;2.75
66336;PMS1003;53139;45.576;5.304;2023-04-25T09:50:25;4.00;3.00;3.00
66336;PMS1003;53139;45.576;5.304;2023-04-25T09:54:34;3.00;3.00;2.00
66336;PMS1003;53139;45.576;5.304;2023-04-25T09:58:39;3.50;3.00;3.00
66336;PMS1003;53139;45.576;5.304;2023-04-25T10:02:59;2.50;2.50;2.00
66336;PMS1003;53139;45.576;5.304;2023-04-25T10:07:11;4.50;3.25;2.75
66336;PMS1003;53139;45.576;5.304;2023-04-25T10:11:05;3.00;3.00;2.00
66336;PMS1003;53139;45.576;5.304;2023-04-25T10:15:14;3.50;3.00;3.00
66336;PMS1003;53139;45.576;5.304;2023-04-25T10:19:11;7.75;3.00;3.00
66336;PMS1003;53139;45.576;5.304;2023-04-25T10:23:13;4.00;4.00;3.75
66336;PMS1003;53139;45.576;5.304;2023-04-25T10:27:20;4.00;4.00;4.00
66336;PMS1003;53139;45.576;5.304;2023-04-25T10:31:45;4.00;4.00;3.00
66336;PMS1003;53139;45.576;5.304;2023-04-25T10:35:50;1.75;1.75;1.50
66336;PMS1003;53139;45.576;5.304;2023-04-25T10:39:53;4.00;2.50;2.00
66336;PMS1003;53139;45.576;5.304;2023-04-25T10:44:14;3.75;1.25;1.00
66336;PMS1003;53139;45.576;5.304;2023-04-25T10:52:26;3.25;2.25;1.50
66336;PMS1003;53139;45.576;5.304;2023-04-25T10:56:18;4.00;2.00;1.50
66336;PMS1003;53139;45.576;5.304;2023-04-25T11:00:41;1.50;1.50;1.00
66336;PMS1003;53139;45.576;5.304;2023-04-25T11:04:56;4.00;4.00;3.00
66336;PMS1003;53139;45.576;5.304;2023-04-25T11:09:16;3.00;2.00;2.00
66336;PMS1003;53139;45.576;5.304;2023-04-25T11:13:15;3.25;3.25;3.25
66336;PMS1003;53139;45.576;5.304;2023-04-25T11:17:32;4.25;4.25;3.00
66336;PMS1003;53139;45.576;5.304;2023-04-25T11:21:39;2.25;2.25;1.75
66336;PMS1003;53139;45.576;5.304;2023-04-25T11:29:52;2.50;2.50;2.00
66336;PMS1003;53139;45.576;5.304;2023-04-25T11:34:04;1.00;1.00;1.00
66336;PMS1003;53139;45.576;5.304;2023-04-25T11:37:56;3.25;2.25;2.00
66336;PMS1003;53139;45.576;5.304;2023-04-25T11:41:56;1.75;1.75;1.00
66336;PMS1003;53139;45.576;5.304;2023-04-25T11:45:55;3.25;2.00;2.00
66336;PMS1003;53139;45.576;5.304;2023-04-25T11:49:50;2.00;2.00;2.00
66336;PMS1003;53139;45.576;5.304;2023-04-25T11:53:48;1.50;1.50;1.25
66336;PMS1003;53139;45.576;5.304;2023-04-25T11:57:39;1.00;1.00;0.00
66336;PMS1003;53139;45.576;5.304;2023-04-25T12:01:48;2.00;2.00;2.00
66336;PMS1003;53139;45.576;5.304;2023-04-25T12:06:03;3.00;3.00;2.00
66336;PMS1003;53139;45.576;5.304;2023-04-25T12:10:11;1.75;1.75;1.00
66336;PMS1003;53139;45.576;5.304;2023-04-25T12:19:05;2.00;1.25;1.00
66336;PMS1003;53139;45.576;5.304;2023-04-25T12:23:06;2.00;2.00;1.75
66336;PMS1003;53139;45.576;5.304;2023-04-25T12:27:04;3.00;2.00;1.50
66336;PMS1003;53139;45.576;5.304;2023-04-25T12:30:58;1.00;1.00;1.00
66336;PMS1003;53139;45.576;5.304;2023-04-25T12:34:40;2.00;2.00;2.00
66336;PMS1003;53139;45.576;5.304;2023-04-25T12:38:29;1.50;1.00;1.00
66336;PMS1003;53139;45.576;5.304;2023-04-25T12:42:17;2.25;1.75;1.50
66336;PMS1003;53139;45.576;5.304;2023-04-25T12:46:04;4.25;2.00;2.00
66336;PMS1003;53139;45.576;5.304;2023-04-25T12:49:48;2.00;2.00;1.75
66336;PMS1003;53139;45.576;5.304;2023-04-25T12:53:30;2.00;2.00;1.00
66336;PMS1003;53139;45.576;5.304;2023-04-25T12:57:09;2.00;2.00;2.00
66336;PMS1003;53139;45.576;5.304;2023-04-25T13:01:01;2.50;2.50;2.00
66336;PMS1003;53139;45.576;5.304;2023-04-25T13:04:54;2.00;2.00;2.00
66336;PMS1003;53139;45.576;5.304;2023-04-25T13:08:58;2.75;2.00;2.00
66336;PMS1003;53139;45.576;5.304;2023-04-25T13:12:58;3.00;2.75;2.50
66336;PMS1003;53139;45.576;5.304;2023-04-25T13:16:51;6.75;4.00;3.00
66336;PMS1003;53139;45.576;5.304;2023-04-25T13:20:39;4.50;2.75;2.00
66336;PMS1003;53139;45.576;5.304;2023-04-25T13:24:29;3.00;2.00;1.00
66336;PMS1003;53139;45.576;5.304;2023-04-25T13:28:35;3.00;3.00;2.00
66336;PMS1003;53139;45.576;5.304;2023-04-25T13:32:31;4.75;2.00;1.75
66336;PMS1003;53139;45.576;5.304;2023-04-25T13:36:52;3.75;3.00;3.00
66336;PMS1003;53139;45.576;5.304;2023-04-25T13:40:59;2.25;2.25;2.25
66336;PMS1003;53139;45.576;5.304;2023-04-25T13:45:10;4.75;3.00;2.50
66336;PMS1003;53139;45.576;5.304;2023-04-25T13:48:57;1.50;1.50;1.00
66336;PMS1003;53139;45.576;5.304;2023-04-25T13:53:00;3.50;2.25;2.00
66336;PMS1003;53139;45.576;5.304;2023-04-25T13:57:09;1.00;1.00;1.00
66336;PMS1003;53139;45.576;5.304;2023-04-25T14:01:17;3.00;2.00;2.00
66336;PMS1003;53139;45.576;5.304;2023-04-25T14:05:10;4.25;2.50;2.00
66336;PMS1003;53139;45.576;5.304;2023-04-25T14:09:22;4.25;2.25;2.00
66336;PMS1003;53139;45.576;5.304;2023-04-25T14:13:04;2.75;2.75;2.00
66336;PMS1003;53139;45.576;5.304;2023-04-25T14:21:10;1.00;1.00;1.00
66336;PMS1003;53139;45.576;5.304;2023-04-25T14:25:08;2.25;2.25;2.25
66336;PMS1003;53139;45.576;5.304;2023-04-25T14:29:17;4.00;2.50;2.00
66336;PMS1003;53139;45.576;5.304;2023-04-25T14:33:31;1.50;1.50;1.00
66336;PMS1003;53139;45.576;5.304;2023-04-25T14:37:43;1.75;1.00;1.00
66336;PMS1003;53139;45.576;5.304;2023-04-25T14:41:27;2.50;1.75;1.75
66336;PMS1003;53139;45.576;5.304;2023-04-25T14:44:56;1.25;1.25;1.00
66336;PMS1003;53139;45.576;5.304;2023-04-25T14:48:42;2.00;2.00;1.50
66336;PMS1003;53139;45.576;5.304;2023-04-25T14:52:54;3.00;3.00;2.00
66336;PMS1003;53139;45.576;5.304;2023-04-25T14:56:42;4.25;1.50;1.25
66336;PMS1003;53139;45.576;5.304;2023-04-25T15:00:47;2.00;2.00;1.50
66336;PMS1003;53139;45.576;5.304;2023-04-25T15:04:54;2.75;2.00;2.00
66336;PMS1003;53139;45.576;5.304;2023-04-25T15:08:40;2.00;2.00;1.00
66336;PMS1003;53139;45.576;5.304;2023-04-25T15:12:30;1.00;1.00;0.25
66336;PMS1003;53139;45.576;5.304;2023-04-25T15:16:14;1.00;1.00;1.00
66336;PMS1003;53139;45.576;5.304;2023-04-25T15:20:16;1.00;1.00;1.00
66336;PMS1003;53139;45.576;5.304;2023-04-25T15:24:11;1.75;1.75;1.25
66336;PMS1003;53139;45.576;5.304;2023-04-25T15:28:09;1.00;1.00;1.00
66336;PMS1003;53139;45.576;5.304;2023-04-25T15:31:46;2.00;2.00;1.25
66336;PMS1003;53139;45.576;5.304;2023-04-25T15:35:13;1.25;1.25;1.00
66336;PMS1003;53139;45.576;5.304;2023-04-25T15:38:23;1.00;1.00;1.00
66336;PMS1003;53139;45.576;5.304;2023-04-25T15:41:26;1.00;1.00;1.00
66336;PMS1003;53139;45.576;5.304;2023-04-25T15:44:35;3.00;3.00;3.00
66336;PMS1003;53139;45.576;5.304;2023-04-25T15:47:36;1.50;1.00;1.00
66336;PMS1003;53139;45.576;5.304;2023-04-25T15:50:40;1.50;1.50;1.00
66336;PMS1003;53139;45.576;5.304;2023-04-25T15:53:41;2.75;1.50;1.00
66336;PMS1003;53139;45.576;5.304;2023-04-25T15:56:41;1.00;1.00;1.00
66336;PMS1003;53139;45.576;5.304;2023-04-25T15:59:42;1.75;1.00;1.00
66336;PMS1003;53139;45.576;5.304;2023-04-25T16:02:42;2.00;1.75;1.00
66336;PMS1003;53139;45.576;5.304;2023-04-25T16:05:43;0.00;0.00;0.00
66336;PMS1003;53139;45.576;5.304;2023-04-25T16:08:43;2.00;1.75;1.00
66336;PMS1003;53139;45.576;5.304;2023-04-25T16:11:44;1.00;1.00;1.00
66336;PMS1003;53139;45.576;5.304;2023-04-25T16:14:45;2.75;2.75;2.00
66336;PMS1003;53139;45.576;5.304;2023-04-25T16:17:45;2.50;1.00;1.00
66336;PMS1003;53139;45.576;5.304;2023-04-25T16:20:45;1.00;1.00;1.00
66336;PMS1003;53139;45.576;5.304;2023-04-25T16:23:46;2.75;1.00;0.00
66336;PMS1003;53139;45.576;5.304;2023-04-25T16:26:46;2.50;1.00;1.00
66336;PMS1003;53139;45.576;5.304;2023-04-25T16:29:47;1.50;1.00;1.00
66336;PMS1003;53139;45.576;5.304;2023-04-25T16:32:50;2.00;2.00;2.00
66336;PMS1003;53139;45.576;5.304;2023-04-25T16:35:50;1.50;1.00;1.00
66336;PMS1003;53139;45.576;5.304;2023-04-25T16:38:51;1.00;1.00;1.00
66336;PMS1003;53139;45.576;5.304;2023-04-25T16:41:52;1.00;1.00;1.00
66336;PMS1003;53139;45.576;5.304;2023-04-25T16:44:55;2.00;2.00;1.75
66336;PMS1003;53139;45.576;5.304;2023-04-25T16:47:55;2.25;2.00;1.50
66336;PMS1003;53139;45.576;5.304;2023-04-25T16:50:55;3.00;1.00;1.00
66336;PMS1003;53139;45.576;5.304;2023-04-25T16:53:56;2.00;1.75;1.00
66336;PMS1003;53139;45.576;5.304;2023-04-25T16:56:57;1.00;1.00;1.00
66336;PMS1003;53139;45.576;5.304;2023-04-25T17:00:00;1.50;1.25;1.00
66336;PMS1003;53139;45.576;5.304;2023-04-25T17:03:01;1.00;1.00;1.00
66336;PMS1003;53139;45.576;5.304;2023-04-25T17:06:06;1.50;1.00;1.00
66336;PMS1003;53139;45.576;5.304;2023-04-25T17:09:07;2.25;1.00;1.00
66336;PMS1003;53139;45.576;5.304;2023-04-25T17:12:07;1.75;1.75;1.50
66336;PMS1003;53139;45.576;5.304;2023-04-25T17:15:08;2.00;2.00;1.25
66336;PMS1003;53139;45.576;5.304;2023-04-25T17:18:09;1.00;1.00;1.00
66336;PMS1003;53139;45.576;5.304;2023-04-25T17:21:09;2.00;1.25;1.00
66336;PMS1003;53139;45.576;5.304;2023-04-25T17:24:16;1.00;0.75;0.75
66336;PMS1003;53139;45.576;5.304;2023-04-25T17:27:19;1.00;1.00;1.00
66336;PMS1003;53139;45.576;5.304;2023-04-25T17:30:20;0.50;0.50;0.50
66336;PMS1003;53139;45.576;5.304;2023-04-25T17:33:21;0.75;0.75;0.75
66336;PMS1003;53139;45.576;5.304;2023-04-25T17:36:25;0.75;0.75;0.50
66336;PMS1003;53139;45.576;5.304;2023-04-25T17:39:26;0.75;0.75;0.75
66336;PMS1003;53139;45.576;5.304;2023-04-25T17:42:26;1.00;1.00;0.75
66336;PMS1003;53139;45.576;5.304;2023-04-25T17:45:27;0.00;0.00;0.00
66336;PMS1003;53139;45.576;5.304;2023-04-25T17:48:33;1.00;1.00;0.50
66336;PMS1003;53139;45.576;5.304;2023-04-25T17:51:33;1.00;1.00;1.00
66336;PMS1003;53139;45.576;5.304;2023-04-25T17:54:34;1.00;1.00;0.50
66336;PMS1003;53139;45.576;5.304;2023-04-25T17:57:34;1.00;1.00;1.00
66336;PMS1003;53139;45.576;5.304;2023-04-25T18:00:35;1.25;1.25;1.00
66336;PMS1003;53139;45.576;5.304;2023-04-25T18:03:36;3.00;2.00;1.75
66336;PMS1003;53139;45.576;5.304;2023-04-25T18:06:39;1.50;1.50;1.00
66336;PMS1003;53139;45.576;5.304;2023-04-25T18:09:40;3.00;1.25;1.00
66336;PMS1003;53139;45.576;5.304;2023-04-25T18:12:40;3.00;2.00;1.75
66336;PMS1003;53139;45.576;5.304;2023-04-25T18:15:51;1.25;1.25;1.00
66336;PMS1003;53139;45.576;5.304;2023-04-25T18:18:51;3.00;2.00;1.25
66336;PMS1003;53139;45.576;5.304;2023-04-25T18:21:53;3.00;2.00;1.00
66336;PMS1003;53139;45.576;5.304;2023-04-25T18:24:54;4.00;4.00;3.25
66336;PMS1003;53139;45.576;5.304;2023-04-25T18:27:54;5.00;4.50;4.00
66336;PMS1003;53139;45.576;5.304;2023-04-25T18:30:55;5.00;5.00;4.00
66336;PMS1003;53139;45.576;5.304;2023-04-25T18:33:55;6.00;6.00;4.75
66336;PMS1003;53139;45.576;5.304;2023-04-25T18:36:56;10.50;8.50;7.00
66336;PMS1003;53139;45.576;5.304;2023-04-25T18:39:57;5.75;4.50;3.00
66336;PMS1003;53139;45.576;5.304;2023-04-25T18:42:58;3.00;2.00;2.00
66336;PMS1003;53139;45.576;5.304;2023-04-25T18:45:59;3.00;3.00;2.25
66336;PMS1003;53139;45.576;5.304;2023-04-25T18:48:59;3.75;3.25;3.00
66336;PMS1003;53139;45.576;5.304;2023-04-25T18:52:05;4.25;4.25;3.00
66336;PMS1003;53139;45.576;5.304;2023-04-25T18:55:11;3.00;2.25;2.25
66336;PMS1003;53139;45.576;5.304;2023-04-25T18:58:11;3.00;3.00;2.00
66336;PMS1003;53139;45.576;5.304;2023-04-25T19:01:28;2.25;2.25;2.00
66336;PMS1003;53139;45.576;5.304;2023-04-25T19:04:32;4.00;4.00;3.00
66336;PMS1003;53139;45.576;5.304;2023-04-25T19:07:58;3.50;3.50;3.00
66336;PMS1003;53139;45.576;5.304;2023-04-25T19:10:59;2.75;2.75;2.25
66336;PMS1003;53139;45.576;5.304;2023-04-25T19:14:15;5.00;3.00;2.00
66336;PMS1003;53139;45.576;5.304;2023-04-25T19:17:16;3.75;2.50;2.50
66336;PMS1003;53139;45.576;5.304;2023-04-25T19:20:32;5.75;4.50;3.75
66336;PMS1003;53139;45.576;5.304;2023-04-25T19:23:33;9.00;4.00;3.75
66336;PMS1003;53139;45.576;5.304;2023-04-25T19:26:37;7.00;4.00;3.25
66336;PMS1003;53139;45.576;5.304;2023-04-25T19:30:33;14.75;7.00;4.50
66336;PMS1003;53139;45.576;5.304;2023-04-25T19:33:41;9.75;5.00;3.25
66336;PMS1003;53139;45.576;5.304;2023-04-25T19:37:31;11.00;8.50;5.00
66336;PMS1003;53139;45.576;5.304;2023-04-25T19:41:08;7.75;5.75;4.25
66336;PMS1003;53139;45.576;5.304;2023-04-25T19:44:08;3.00;0.50;0.00
66336;PMS1003;53139;45.576;5.304;2023-04-25T19:47:09;5.75;5.75;4.25
66336;PMS1003;53139;45.576;5.304;2023-04-25T19:50:10;5.75;5.75;3.50
66336;PMS1003;53139;45.576;5.304;2023-04-25T19:53:10;7.25;5.25;4.00
66336;PMS1003;53139;45.576;5.304;2023-04-25T19:56:11;6.00;5.25;4.00
66336;PMS1003;53139;45.576;5.304;2023-04-25T19:59:11;5.50;4.00;3.25
66336;PMS1003;53139;45.576;5.304;2023-04-25T20:02:12;5.00;5.00;3.00